createdAt,value
2018-07-01T00:29:12.201Z,182.63
2018-07-01T00:31:54.283Z,289.90
2018-07-01T00:34:35.179Z,341.87
2018-07-01T00:37:18.080Z,373.77
2018-07-01T00:40:00.356Z,467.03
2018-07-01T00:42:42.421Z,263.57
2018-07-01T00:45:24.559Z,256.57
2018-07-01T00:48:05.804Z,490.20
2018-07-01T00:50:48.479Z,482.70
2018-07-01T00:53:27.956Z,257.63
2018-07-01T00:56:07.981Z,387.50
2018-07-01T00:58:50.955Z,343.80
2018-07-01T01:01:33.062Z,163.60
2018-07-01T01:04:10.822Z,373.37
2018-07-01T01:06:50.980Z,361.07
2018-07-01T01:09:31.447Z,1072.97
2018-07-01T01:12:11.118Z,1251.57
2018-07-01T01:14:49.921Z,1720.83
2018-07-01T01:17:29.202Z,1562.67
2018-07-01T01:20:09.900Z,1598.27
2018-07-01T01:22:50.618Z,1999.90
2018-07-01T01:25:29.637Z,1999.90
2018-07-01T01:28:09.444Z,1999.90
2018-07-01T01:30:49.384Z,1882.93
2018-07-01T01:33:26.517Z,1999.90
2018-07-01T01:36:07.539Z,1885.17
2018-07-01T01:38:49.003Z,1772.93
2018-07-01T01:42:32.083Z,1439.57
2018-07-01T01:45:19.277Z,1405.03
2018-07-01T01:49:00.162Z,1380.00
2018-07-01T01:52:00.901Z,1333.03
2018-07-01T01:55:49.697Z,1345.53
2018-07-01T01:58:38.217Z,1369.27
2018-07-01T02:01:21.939Z,1394.17
2018-07-01T03:27:38.461Z,415.47
2018-07-01T03:30:19.264Z,417.83
2018-07-01T03:33:00.903Z,405.80
2018-07-01T03:35:40.442Z,382.27
2018-07-01T03:38:22.317Z,372.47
2018-07-01T03:41:01.544Z,374.47
2018-07-01T03:43:42.743Z,346.37
2018-07-01T03:46:24.439Z,349.63
2018-07-01T03:49:04.282Z,347.33
2018-07-01T03:51:44.376Z,334.13
2018-07-01T03:54:24.906Z,318.93
2018-07-01T03:57:05.341Z,312.70
2018-07-01T03:59:45.418Z,333.50
2018-07-01T04:02:26.405Z,367.57
2018-07-01T04:05:05.702Z,378.50
2018-07-01T04:07:45.681Z,403.60
2018-07-01T04:10:24.661Z,464.00
2018-07-01T04:13:04.041Z,505.37
2018-07-01T04:15:46.479Z,674.53
2018-07-01T04:18:28.461Z,619.37
2018-07-01T04:21:09.483Z,463.30
2018-07-01T04:23:50.958Z,456.87
2018-07-01T04:26:30.300Z,502.87
2018-07-01T04:29:12.161Z,496.53
2018-07-01T04:31:53.757Z,562.37
2018-07-01T04:34:34.398Z,598.17
2018-07-01T04:37:15.820Z,547.67
2018-07-01T04:40:00.664Z,570.90
2018-07-01T04:42:40.456Z,558.30
2018-07-01T04:45:21.587Z,541.63
2018-07-01T04:48:01.539Z,508.80
2018-07-01T04:50:40.979Z,588.37
2018-07-01T04:53:20.180Z,602.93
2018-07-01T04:55:59.520Z,636.83
2018-07-01T04:58:41.819Z,619.37
2018-07-01T05:01:20.777Z,564.27
2018-07-01T05:04:00.356Z,574.30
2018-07-01T05:06:45.361Z,655.73
2018-07-01T05:09:27.562Z,606.20
2018-07-01T05:12:08.800Z,610.07
2018-07-01T05:14:52.183Z,625.00
2018-07-01T05:17:32.600Z,614.27
2018-07-01T05:20:12.918Z,673.83
2018-07-01T05:22:55.723Z,812.77
2018-07-01T05:25:38.561Z,739.60
2018-07-01T05:28:20.001Z,1003.80
2018-07-01T05:30:58.220Z,1236.13
2018-07-01T05:33:39.664Z,1304.13
2018-07-01T05:36:22.097Z,1363.63
2018-07-01T05:39:01.383Z,1338.00
2018-07-01T05:41:41.341Z,813.23
2018-07-01T05:44:23.787Z,692.73
2018-07-01T05:47:02.945Z,509.33
2018-07-01T05:49:45.858Z,1163.30
2018-07-01T05:52:29.535Z,1475.13
2018-07-01T05:55:12.840Z,1737.27
2018-07-01T05:57:55.016Z,1999.90
2018-07-01T06:00:34.908Z,1999.90
2018-07-01T06:03:14.264Z,900.27
2018-07-01T06:05:54.855Z,1258.60
2018-07-01T06:08:35.870Z,1150.50
2018-07-01T06:11:18.283Z,1232.03
2018-07-01T06:14:00.112Z,1225.97
2018-07-01T06:16:41.783Z,1168.03
2018-07-01T06:19:21.538Z,1004.10
2018-07-01T06:22:01.639Z,972.70
2018-07-01T06:24:42.899Z,775.63
2018-07-01T06:27:27.406Z,634.67
2018-07-01T06:30:09.103Z,525.80
2018-07-01T06:33:02.600Z,353.07
2018-07-01T06:36:40.060Z,257.87
2018-07-01T06:39:52.123Z,319.10
2018-07-01T07:03:36.963Z,663.73
2018-07-01T07:06:52.329Z,538.70
2018-07-01T07:10:07.841Z,255.87
2018-07-01T07:13:17.777Z,40.07
2018-07-01T07:16:48.420Z,59.17
2018-07-01T07:19:49.922Z,36.43
2018-07-01T07:29:01.518Z,34.48
2018-07-01T07:31:59.500Z,41.20
2018-07-01T07:34:51.973Z,63.90
2018-07-01T07:44:53.613Z,56.90
2018-07-01T07:51:36.915Z,77.35
2018-07-01T07:54:30.645Z,90.40
2018-07-01T07:57:14.949Z,103.25
2018-07-01T07:59:59.637Z,100.10
2018-07-01T08:03:09.357Z,102.78
2018-07-01T08:06:01.941Z,94.90
2018-07-01T08:09:28.018Z,100.15
2018-07-01T08:12:34.259Z,94.83
2018-07-01T08:15:20.862Z,105.45
2018-07-01T08:18:00.498Z,106.97
2018-07-01T08:21:09.581Z,111.95
2018-07-01T08:27:23.702Z,100.95
2018-07-01T08:30:04.660Z,98.52
2018-07-01T08:36:40.338Z,71.87
2018-07-01T08:39:47.647Z,63.68
2018-07-01T08:42:57.962Z,57.30
2018-07-01T08:45:58.400Z,52.85
2018-07-01T08:49:04.380Z,47.58
2018-07-01T08:55:26.836Z,42.20
2018-07-01T08:58:17.818Z,40.33
2018-07-01T09:00:58.619Z,33.18
2018-07-01T09:03:53.401Z,34.95
2018-07-01T09:06:31.703Z,31.97
2018-07-01T09:09:13.918Z,35.10
2018-07-01T09:11:55.307Z,33.78
2018-07-01T10:46:45.991Z,83.47
2018-07-01T10:49:24.366Z,66.62
2018-07-01T10:52:04.106Z,41.77
2018-07-01T10:57:39.709Z,34.73
2018-07-01T11:00:19.209Z,77.58
2018-07-01T11:02:59.690Z,68.28
2018-07-01T11:05:42.086Z,32.05
2018-07-01T11:08:24.630Z,48.75
2018-07-01T11:11:18.145Z,43.55
2018-07-01T11:14:00.290Z,54.03
2018-07-01T11:16:38.845Z,34.95
2018-07-01T11:19:21.350Z,85.07
2018-07-01T11:22:06.189Z,45.50
2018-07-01T11:27:42.270Z,41.90
2018-07-01T11:30:25.270Z,40.80
2018-07-01T11:33:08.006Z,31.97
2018-07-01T11:35:58.669Z,34.03
2018-07-01T11:38:40.069Z,41.08
2018-07-01T11:41:23.168Z,34.27
2018-07-01T11:44:04.005Z,39.33
2018-07-01T11:46:44.124Z,38.95
2018-07-01T11:49:27.982Z,34.20
2018-07-01T11:55:20.405Z,34.50
2018-07-01T11:57:58.985Z,34.83
2018-07-01T12:00:44.410Z,32.55
2018-07-01T12:03:26.408Z,31.65
2018-07-01T12:06:07.187Z,31.25
2018-07-01T12:08:46.612Z,39.42
2018-07-01T12:11:30.650Z,32.90
2018-07-01T12:14:27.025Z,31.85
2018-07-01T12:17:08.726Z,33.53
2018-07-01T12:19:48.726Z,38.78
2018-07-01T12:22:31.909Z,34.67
2018-07-01T12:25:12.022Z,36.95
2018-07-01T12:27:52.264Z,38.98
2018-07-01T12:30:33.849Z,37.33
2018-07-01T12:33:13.444Z,39.48
2018-07-01T12:35:56.110Z,34.67
2018-07-01T12:38:36.846Z,43.45
2018-07-01T12:41:15.982Z,42.73
2018-07-01T12:43:55.484Z,47.25
2018-07-01T12:46:38.086Z,42.38
2018-07-01T12:49:23.049Z,37.17
2018-07-01T12:52:07.769Z,39.33
2018-07-01T12:54:49.927Z,36.30
2018-07-01T12:57:29.248Z,33.92
2018-07-01T13:00:24.647Z,39.18
2018-07-01T13:03:07.464Z,36.40
2018-07-01T13:05:50.209Z,34.18
2018-07-01T13:08:36.257Z,35.80
2018-07-01T13:11:36.978Z,52.25
2018-07-01T13:14:17.466Z,38.65
2018-07-01T13:17:00.502Z,33.02
2018-07-01T13:19:43.288Z,35.00
2018-07-01T13:22:31.269Z,43.63
2018-07-01T13:25:27.022Z,51.88
2018-07-01T13:28:05.585Z,36.20
2018-07-01T13:30:50.350Z,47.05
2018-07-01T13:33:34.868Z,51.92
2018-07-01T13:36:17.227Z,60.45
2018-07-01T13:39:05.545Z,50.60
2018-07-01T13:41:54.526Z,42.55
2018-07-01T13:44:35.889Z,45.83
2018-07-01T13:47:15.191Z,68.85
2018-07-01T13:49:55.291Z,56.13
2018-07-01T13:52:37.803Z,52.98
2018-07-01T13:55:22.450Z,56.15
2018-07-01T13:58:05.285Z,39.33
2018-07-01T14:01:00.827Z,52.55
2018-07-01T14:03:38.925Z,46.23
2018-07-01T14:06:24.059Z,38.60
2018-07-01T14:09:05.708Z,55.48
2018-07-01T14:11:47.002Z,60.75
2018-07-01T14:14:30.129Z,55.40
2018-07-01T14:17:16.029Z,57.27
2018-07-01T14:19:58.075Z,40.30
2018-07-01T14:22:42.787Z,52.85
2018-07-01T14:25:27.867Z,45.55
2018-07-01T14:28:11.146Z,39.13
2018-07-01T14:30:54.911Z,35.17
2018-07-01T14:33:40.244Z,42.70
2018-07-01T14:36:24.845Z,43.55
2018-07-01T14:39:10.637Z,38.33
2018-07-01T14:41:55.066Z,64.70
2018-07-01T14:44:48.305Z,38.13
2018-07-01T14:47:26.832Z,55.85
2018-07-01T14:50:08.049Z,44.90
2018-07-01T14:52:49.628Z,40.92
2018-07-01T14:55:30.669Z,51.08
2018-07-01T14:58:13.882Z,47.13
2018-07-01T15:01:04.388Z,43.10
2018-07-01T15:03:49.584Z,54.30
2018-07-01T15:06:33.064Z,63.80
2018-07-01T15:09:16.010Z,49.10
2018-07-01T15:11:58.527Z,58.17
2018-07-01T15:14:41.610Z,66.37
2018-07-01T15:17:19.426Z,36.15
2018-07-01T15:19:59.325Z,65.30
2018-07-01T15:22:40.315Z,63.25
2018-07-01T15:25:23.783Z,63.80
2018-07-01T15:28:03.913Z,60.78
2018-07-01T15:30:44.325Z,61.77
2018-07-01T15:33:24.086Z,45.92
2018-07-01T15:36:06.952Z,42.17
2018-07-01T15:38:47.103Z,37.50
2018-07-01T15:41:31.850Z,39.85
2018-07-01T15:44:14.246Z,50.95
2018-07-01T15:46:57.293Z,51.60
2018-07-01T15:49:41.253Z,48.85
2018-07-01T15:52:20.725Z,36.60
2018-07-01T15:55:05.048Z,44.53
2018-07-01T15:57:48.597Z,44.35
2018-07-01T16:00:27.802Z,38.33
2018-07-01T16:03:13.405Z,39.27
2018-07-01T16:05:52.224Z,50.38
2018-07-01T16:08:32.309Z,37.70
2018-07-01T16:11:14.012Z,37.83
2018-07-01T16:13:59.670Z,38.17
2018-07-01T16:16:43.648Z,57.50
2018-07-01T16:19:24.545Z,35.70
2018-07-01T16:22:20.584Z,37.15
2018-07-01T16:26:11.331Z,35.23
2018-07-01T16:28:54.963Z,31.52
2018-07-01T16:31:37.433Z,32.55
2018-07-01T16:34:15.623Z,52.40
2018-07-01T16:36:59.209Z,35.83
2018-07-01T16:39:39.922Z,28.85
2018-07-01T16:42:27.171Z,30.37
2018-07-01T16:45:15.825Z,39.05
2018-07-01T16:47:55.246Z,34.43
2018-07-01T16:50:38.246Z,97.97
2018-07-01T16:53:19.007Z,59.55
2018-07-01T16:56:01.486Z,37.63
2018-07-01T16:58:45.548Z,44.83
2018-07-01T17:01:29.482Z,46.18
2018-07-01T17:04:08.631Z,95.22
2018-07-01T17:06:51.584Z,118.57
2018-07-01T17:09:41.567Z,94.15
2018-07-01T17:12:21.624Z,39.73
2018-07-01T17:15:05.484Z,64.17
2018-07-01T17:17:49.879Z,62.17
2018-07-01T17:20:37.206Z,111.03
2018-07-01T17:23:17.428Z,111.97
2018-07-01T17:26:11.211Z,115.47
2018-07-01T17:28:52.867Z,102.73
2018-07-01T17:31:46.929Z,117.40
2018-07-01T17:34:26.285Z,91.60
2018-07-01T17:37:06.304Z,111.70
2018-07-01T17:39:46.823Z,103.33
2018-07-01T17:42:31.567Z,94.17
2018-07-01T17:45:15.172Z,112.83
2018-07-01T17:48:01.864Z,65.63
2018-07-01T17:50:46.942Z,106.00
2018-07-01T17:53:38.187Z,90.03
2018-07-01T17:56:19.866Z,87.80
2018-07-01T17:59:04.208Z,93.27
2018-07-01T18:01:49.350Z,58.40
2018-07-01T18:04:39.025Z,88.13
2018-07-01T18:10:08.875Z,93.73
2018-07-01T18:12:53.526Z,75.70
2018-07-01T18:15:34.432Z,65.53
2018-07-01T18:18:21.088Z,75.13
2018-07-01T18:21:05.344Z,83.27
2018-07-01T18:24:19.497Z,70.47
2018-07-01T18:26:37.007Z,68.63
2018-07-01T18:29:31.614Z,58.90
2018-07-01T18:32:23.166Z,53.40
2018-07-01T18:35:02.508Z,81.03
2018-07-01T18:37:42.675Z,54.57
2018-07-01T18:40:24.647Z,85.13
2018-07-01T18:43:06.860Z,57.90
2018-07-01T18:45:50.367Z,89.20
2018-07-01T18:48:40.883Z,59.67
2018-07-01T18:51:21.846Z,58.77
2018-07-01T18:54:02.027Z,104.27
2018-07-01T18:56:43.372Z,86.67
2018-07-01T18:59:26.167Z,59.23
2018-07-01T19:02:06.230Z,83.30
2018-07-01T19:04:49.264Z,129.63
2018-07-01T19:10:37.569Z,125.30
2018-07-01T19:13:17.465Z,169.13
2018-07-01T19:15:58.322Z,182.30
2018-07-01T19:18:41.887Z,163.53
2018-07-01T19:21:24.005Z,177.30
2018-07-01T19:24:09.023Z,186.40
2018-07-01T19:26:51.649Z,160.53
2018-07-01T19:29:57.250Z,188.77
2018-07-01T19:32:36.464Z,171.43
2018-07-01T19:35:20.948Z,153.63
2018-07-01T19:38:02.122Z,142.17
2018-07-01T19:40:44.750Z,136.73
2018-07-01T19:43:23.188Z,158.60
2018-07-01T19:46:04.787Z,143.80
2018-07-01T19:48:49.882Z,123.87
2018-07-01T19:51:40.668Z,86.90
2018-07-01T19:54:36.202Z,95.33
2018-07-01T19:57:14.210Z,58.37
2018-07-01T19:59:56.288Z,62.70
2018-07-01T20:02:39.365Z,77.80
2018-07-01T20:05:28.228Z,71.17
2018-07-01T20:08:11.950Z,65.57
2018-07-01T20:11:00.728Z,91.03
2018-07-01T20:13:39.652Z,119.63
2018-07-01T20:16:18.664Z,433.30
2018-07-01T20:19:06.729Z,292.07
2018-07-01T20:21:49.747Z,455.13
2018-07-01T20:24:33.469Z,582.33
2018-07-01T20:27:18.050Z,527.07
2018-07-01T20:30:01.191Z,599.90
2018-07-01T20:32:42.766Z,621.70
2018-07-01T20:35:27.807Z,604.23
2018-07-01T20:38:10.032Z,614.33
2018-07-01T20:40:52.083Z,575.30
2018-07-01T20:43:31.225Z,519.77
2018-07-01T20:46:17.708Z,464.43
2018-07-01T20:48:58.489Z,338.60
2018-07-01T20:51:39.064Z,241.03
2018-07-01T20:54:20.704Z,164.90
2018-07-01T20:57:06.612Z,118.97
2018-07-01T20:59:49.564Z,249.53
2018-07-01T21:02:33.367Z,141.17
2018-07-01T21:05:25.507Z,131.33
2018-07-01T21:08:07.944Z,217.53
2018-07-01T21:10:49.431Z,506.00
2018-07-01T21:13:35.644Z,538.77
2018-07-01T21:16:18.190Z,666.77
2018-07-01T21:18:59.425Z,766.00
2018-07-01T21:21:40.726Z,991.07
2018-07-01T21:24:25.511Z,978.57
2018-07-01T21:27:19.641Z,930.20
2018-07-01T21:30:00.484Z,1038.50
2018-07-01T21:32:45.805Z,1063.67
2018-07-01T21:35:25.887Z,1065.57
2018-07-01T21:38:06.566Z,1152.70
2018-07-01T21:40:49.509Z,1080.70
2018-07-01T21:43:30.324Z,1093.53
2018-07-01T21:46:12.027Z,1188.83
2018-07-01T21:49:05.629Z,1149.80
2018-07-01T21:51:46.730Z,1166.40
2018-07-01T21:54:31.553Z,1159.37
2018-07-01T21:57:10.946Z,1092.53
2018-07-01T21:59:50.944Z,1064.83
2018-07-01T22:02:33.804Z,1046.87
2018-07-01T22:05:16.094Z,1067.50
2018-07-01T22:08:10.188Z,1068.20
2018-07-01T22:11:03.249Z,1063.03
2018-07-01T22:32:28.397Z,1304.77
2018-07-01T22:35:11.264Z,1298.60
2018-07-01T22:37:48.886Z,1286.83
2018-07-01T22:40:30.520Z,1279.77
2018-07-01T22:43:11.116Z,1263.70
2018-07-01T22:45:53.420Z,1262.17
2018-07-01T22:48:33.677Z,1242.87
2018-07-01T22:51:19.517Z,1249.93
2018-07-01T22:53:59.818Z,1214.17
2018-07-01T22:56:40.722Z,1198.70
2018-07-01T22:59:22.921Z,1181.07
